sensor_id;sensor_type;location;lat;lon;timestamp;temperature;humidity
21176;DHT22;10746;50.178;8.186;2023-05-10T00:00:40;11.80;99.90
21176;DHT22;10746;50.178;8.186;2023-05-10T00:03:07;11.80;99.90
21176;DHT22;10746;50.178;8.186;2023-05-10T00:05:34;11.80;99.90
21176;DHT22;10746;50.178;8.186;2023-05-10T00:08:02;11.80;99.90
21176;DHT22;10746;50.178;8.186;2023-05-10T00:10:29;11.90;99.90
21176;DHT22;10746;50.178;8.186;2023-05-10T00:12:55;11.80;99.90
21176;DHT22;10746;50.178;8.186;2023-05-10T00:15:22;11.80;99.90
21176;DHT22;10746;50.178;8.186;2023-05-10T00:17:49;11.80;99.90
21176;DHT22;10746;50.178;8.186;2023-05-10T00:20:15;11.80;99.90
21176;DHT22;10746;50.178;8.186;2023-05-10T00:22:42;11.70;99.90
21176;DHT22;10746;50.178;8.186;2023-05-10T00:25:10;11.70;99.90
21176;DHT22;10746;50.178;8.186;2023-05-10T00:27:37;11.70;99.90
21176;DHT22;10746;50.178;8.186;2023-05-10T00:30:04;11.70;99.90
21176;DHT22;10746;50.178;8.186;2023-05-10T00:32:31;11.60;99.90
21176;DHT22;10746;50.178;8.186;2023-05-10T00:34:58;11.60;99.90
21176;DHT22;10746;50.178;8.186;2023-05-10T00:37:25;11.70;99.90
21176;DHT22;10746;50.178;8.186;2023-05-10T00:39:51;11.80;99.90
21176;DHT22;10746;50.178;8.186;2023-05-10T00:42:19;11.60;99.90
21176;DHT22;10746;50.178;8.186;2023-05-10T00:44:46;11.60;99.90
21176;DHT22;10746;50.178;8.186;2023-05-10T00:47:13;11.60;99.90
21176;DHT22;10746;50.178;8.186;2023-05-10T00:49:40;11.60;99.90
21176;DHT22;10746;50.178;8.186;2023-05-10T00:52:07;11.60;99.90
21176;DHT22;10746;50.178;8.186;2023-05-10T00:54:34;11.60;99.90
21176;DHT22;10746;50.178;8.186;2023-05-10T00:57:01;11.50;99.90
21176;DHT22;10746;50.178;8.186;2023-05-10T00:59:30;11.50;99.90
21176;DHT22;10746;50.178;8.186;2023-05-10T01:01:58;11.40;99.90
21176;DHT22;10746;50.178;8.186;2023-05-10T01:04:24;11.50;99.90
21176;DHT22;10746;50.178;8.186;2023-05-10T01:06:52;11.50;99.90
21176;DHT22;10746;50.178;8.186;2023-05-10T01:09:19;11.40;99.90
21176;DHT22;10746;50.178;8.186;2023-05-10T01:11:46;11.40;99.90
21176;DHT22;10746;50.178;8.186;2023-05-10T01:14:15;11.30;99.90
21176;DHT22;10746;50.178;8.186;2023-05-10T01:16:47;11.30;99.90
21176;DHT22;10746;50.178;8.186;2023-05-10T01:19:19;11.30;99.90
21176;DHT22;10746;50.178;8.186;2023-05-10T01:21:51;11.30;99.90
21176;DHT22;10746;50.178;8.186;2023-05-10T01:24:50;11.30;99.90
21176;DHT22;10746;50.178;8.186;2023-05-10T01:27:39;11.30;99.90
21176;DHT22;10746;50.178;8.186;2023-05-10T01:33:11;11.30;99.90
21176;DHT22;10746;50.178;8.186;2023-05-10T01:35:45;11.30;99.90
21176;DHT22;10746;50.178;8.186;2023-05-10T01:38:18;11.30;99.90
21176;DHT22;10746;50.178;8.186;2023-05-10T01:40:54;11.20;99.90
21176;DHT22;10746;50.178;8.186;2023-05-10T01:43:30;11.30;99.90
21176;DHT22;10746;50.178;8.186;2023-05-10T01:46:02;11.20;99.90
21176;DHT22;10746;50.178;8.186;2023-05-10T01:48:37;11.30;99.90
21176;DHT22;10746;50.178;8.186;2023-05-10T01:51:06;11.30;99.90
21176;DHT22;10746;50.178;8.186;2023-05-10T01:53:35;11.30;99.90
21176;DHT22;10746;50.178;8.186;2023-05-10T01:56:04;11.30;99.90
21176;DHT22;10746;50.178;8.186;2023-05-10T01:58:32;11.30;99.90
21176;DHT22;10746;50.178;8.186;2023-05-10T02:01:03;11.30;99.90
21176;DHT22;10746;50.178;8.186;2023-05-10T02:03:32;11.20;99.90
21176;DHT22;10746;50.178;8.186;2023-05-10T02:06:02;11.20;99.90
21176;DHT22;10746;50.178;8.186;2023-05-10T02:08:30;11.20;99.90
21176;DHT22;10746;50.178;8.186;2023-05-10T02:10:58;11.10;99.90
21176;DHT22;10746;50.178;8.186;2023-05-10T02:13:27;11.10;99.90
21176;DHT22;10746;50.178;8.186;2023-05-10T02:15:54;11.00;99.90
21176;DHT22;10746;50.178;8.186;2023-05-10T02:18:22;11.00;99.90
21176;DHT22;10746;50.178;8.186;2023-05-10T02:20:51;11.00;99.90
21176;DHT22;10746;50.178;8.186;2023-05-10T02:23:20;11.00;99.90
21176;DHT22;10746;50.178;8.186;2023-05-10T02:25:48;11.00;99.90
21176;DHT22;10746;50.178;8.186;2023-05-10T02:28:15;11.00;99.90
21176;DHT22;10746;50.178;8.186;2023-05-10T02:30:43;11.00;99.90
21176;DHT22;10746;50.178;8.186;2023-05-10T02:33:11;11.10;99.90
21176;DHT22;10746;50.178;8.186;2023-05-10T02:35:38;11.10;99.90
21176;DHT22;10746;50.178;8.186;2023-05-10T02:38:06;11.10;99.90
21176;DHT22;10746;50.178;8.186;2023-05-10T02:40:35;11.10;99.90
21176;DHT22;10746;50.178;8.186;2023-05-10T02:43:04;11.20;99.90
21176;DHT22;10746;50.178;8.186;2023-05-10T02:45:32;11.30;99.90
21176;DHT22;10746;50.178;8.186;2023-05-10T02:48:00;11.30;99.90
21176;DHT22;10746;50.178;8.186;2023-05-10T02:50:28;11.20;99.90
21176;DHT22;10746;50.178;8.186;2023-05-10T02:53:00;11.20;99.90
21176;DHT22;10746;50.178;8.186;2023-05-10T02:55:32;11.20;99.90
21176;DHT22;10746;50.178;8.186;2023-05-10T02:58:01;11.10;99.90
21176;DHT22;10746;50.178;8.186;2023-05-10T03:00:28;11.00;99.90
21176;DHT22;10746;50.178;8.186;2023-05-10T03:02:55;11.00;99.90
21176;DHT22;10746;50.178;8.186;2023-05-10T03:05:22;11.10;99.90
21176;DHT22;10746;50.178;8.186;2023-05-10T03:07:49;11.10;99.90
21176;DHT22;10746;50.178;8.186;2023-05-10T03:10:17;11.20;99.90
21176;DHT22;10746;50.178;8.186;2023-05-10T03:13:05;11.20;99.90
21176;DHT22;10746;50.178;8.186;2023-05-10T03:15:39;11.30;99.90
21176;DHT22;10746;50.178;8.186;2023-05-10T03:18:13;11.20;99.90
21176;DHT22;10746;50.178;8.186;2023-05-10T03:20:46;11.20;99.90
21176;DHT22;10746;50.178;8.186;2023-05-10T03:23:20;11.30;99.90
21176;DHT22;10746;50.178;8.186;2023-05-10T03:25:48;11.30;99.90
21176;DHT22;10746;50.178;8.186;2023-05-10T03:28:19;11.30;99.90
21176;DHT22;10746;50.178;8.186;2023-05-10T03:30:56;11.30;99.90
21176;DHT22;10746;50.178;8.186;2023-05-10T03:33:23;11.30;99.90
21176;DHT22;10746;50.178;8.186;2023-05-10T03:35:49;11.30;99.90
21176;DHT22;10746;50.178;8.186;2023-05-10T03:38:16;11.30;99.90
21176;DHT22;10746;50.178;8.186;2023-05-10T03:40:43;11.30;99.90
21176;DHT22;10746;50.178;8.186;2023-05-10T03:43:09;11.20;99.90
21176;DHT22;10746;50.178;8.186;2023-05-10T03:45:37;11.30;99.90
21176;DHT22;10746;50.178;8.186;2023-05-10T03:48:05;11.20;99.90
21176;DHT22;10746;50.178;8.186;2023-05-10T03:50:32;11.30;99.90
21176;DHT22;10746;50.178;8.186;2023-05-10T03:52:58;11.30;99.90
21176;DHT22;10746;50.178;8.186;2023-05-10T03:55:25;11.30;99.90
21176;DHT22;10746;50.178;8.186;2023-05-10T03:57:52;11.30;99.90
21176;DHT22;10746;50.178;8.186;2023-05-10T04:00:19;11.30;99.90
21176;DHT22;10746;50.178;8.186;2023-05-10T04:02:47;11.30;99.90
21176;DHT22;10746;50.178;8.186;2023-05-10T04:05:14;11.30;99.90
21176;DHT22;10746;50.178;8.186;2023-05-10T04:07:41;11.30;99.90
21176;DHT22;10746;50.178;8.186;2023-05-10T04:10:09;11.30;99.90
21176;DHT22;10746;50.178;8.186;2023-05-10T04:12:36;11.30;99.90
21176;DHT22;10746;50.178;8.186;2023-05-10T04:15:04;11.30;99.90
21176;DHT22;10746;50.178;8.186;2023-05-10T04:17:30;11.20;99.90
21176;DHT22;10746;50.178;8.186;2023-05-10T04:19:58;11.20;99.90
21176;DHT22;10746;50.178;8.186;2023-05-10T04:22:25;11.30;99.90
21176;DHT22;10746;50.178;8.186;2023-05-10T04:24:53;11.20;99.90
21176;DHT22;10746;50.178;8.186;2023-05-10T04:27:19;11.20;99.90
21176;DHT22;10746;50.178;8.186;2023-05-10T04:29:46;11.20;99.90
21176;DHT22;10746;50.178;8.186;2023-05-10T04:32:13;11.30;99.90
21176;DHT22;10746;50.178;8.186;2023-05-10T04:34:41;11.20;99.90
21176;DHT22;10746;50.178;8.186;2023-05-10T04:37:09;11.20;99.90
21176;DHT22;10746;50.178;8.186;2023-05-10T04:39:36;11.20;99.90
21176;DHT22;10746;50.178;8.186;2023-05-10T04:42:03;11.30;99.90
21176;DHT22;10746;50.178;8.186;2023-05-10T04:44:31;11.30;99.90
21176;DHT22;10746;50.178;8.186;2023-05-10T04:46:58;11.30;99.90
21176;DHT22;10746;50.178;8.186;2023-05-10T04:49:24;11.30;99.90
21176;DHT22;10746;50.178;8.186;2023-05-10T04:51:51;11.30;99.90
21176;DHT22;10746;50.178;8.186;2023-05-10T04:54:19;11.30;99.90
21176;DHT22;10746;50.178;8.186;2023-05-10T04:56:46;11.30;99.90
21176;DHT22;10746;50.178;8.186;2023-05-10T04:59:12;11.40;99.90
21176;DHT22;10746;50.178;8.186;2023-05-10T05:01:39;11.40;99.90
21176;DHT22;10746;50.178;8.186;2023-05-10T05:04:06;11.40;99.90
21176;DHT22;10746;50.178;8.186;2023-05-10T05:06:33;11.40;99.90
21176;DHT22;10746;50.178;8.186;2023-05-10T05:09:00;11.40;99.90
21176;DHT22;10746;50.178;8.186;2023-05-10T05:11:28;11.40;99.90
21176;DHT22;10746;50.178;8.186;2023-05-10T05:13:54;11.40;99.90
21176;DHT22;10746;50.178;8.186;2023-05-10T05:16:21;11.40;99.90
21176;DHT22;10746;50.178;8.186;2023-05-10T05:18:48;11.40;99.90
21176;DHT22;10746;50.178;8.186;2023-05-10T05:21:14;11.40;99.90
21176;DHT22;10746;50.178;8.186;2023-05-10T05:23:42;11.40;99.90
21176;DHT22;10746;50.178;8.186;2023-05-10T05:26:08;11.30;99.90
21176;DHT22;10746;50.178;8.186;2023-05-10T05:28:38;11.30;99.90
21176;DHT22;10746;50.178;8.186;2023-05-10T05:31:05;11.30;99.90
21176;DHT22;10746;50.178;8.186;2023-05-10T05:33:32;11.30;99.90
21176;DHT22;10746;50.178;8.186;2023-05-10T05:36:00;11.40;99.90
21176;DHT22;10746;50.178;8.186;2023-05-10T05:38:27;11.30;99.90
21176;DHT22;10746;50.178;8.186;2023-05-10T05:40:54;11.40;99.90
21176;DHT22;10746;50.178;8.186;2023-05-10T05:43:20;11.50;99.90
21176;DHT22;10746;50.178;8.186;2023-05-10T05:45:48;11.40;99.90
21176;DHT22;10746;50.178;8.186;2023-05-10T05:48:15;11.50;99.90
21176;DHT22;10746;50.178;8.186;2023-05-10T05:50:42;11.50;99.90
21176;DHT22;10746;50.178;8.186;2023-05-10T05:53:08;11.50;99.90
21176;DHT22;10746;50.178;8.186;2023-05-10T05:55:35;11.50;99.90
21176;DHT22;10746;50.178;8.186;2023-05-10T05:58:02;11.60;99.90
21176;DHT22;10746;50.178;8.186;2023-05-10T06:00:29;11.60;99.90
21176;DHT22;10746;50.178;8.186;2023-05-10T06:02:57;11.70;99.90
21176;DHT22;10746;50.178;8.186;2023-05-10T06:05:23;11.70;99.90
21176;DHT22;10746;50.178;8.186;2023-05-10T06:07:50;11.70;99.90
21176;DHT22;10746;50.178;8.186;2023-05-10T06:10:17;11.70;99.90
21176;DHT22;10746;50.178;8.186;2023-05-10T06:12:43;11.80;99.90
21176;DHT22;10746;50.178;8.186;2023-05-10T06:15:10;12.10;99.90
21176;DHT22;10746;50.178;8.186;2023-05-10T06:17:37;12.20;99.90
21176;DHT22;10746;50.178;8.186;2023-05-10T06:20:07;12.20;99.90
21176;DHT22;10746;50.178;8.186;2023-05-10T06:22:34;12.60;99.90
21176;DHT22;10746;50.178;8.186;2023-05-10T06:25:00;12.70;99.90
21176;DHT22;10746;50.178;8.186;2023-05-10T06:27:28;12.50;99.90
21176;DHT22;10746;50.178;8.186;2023-05-10T06:29:54;12.50;99.90
21176;DHT22;10746;50.178;8.186;2023-05-10T06:32:21;12.40;99.90
21176;DHT22;10746;50.178;8.186;2023-05-10T06:34:48;12.40;99.90
21176;DHT22;10746;50.178;8.186;2023-05-10T06:37:16;12.30;99.90
21176;DHT22;10746;50.178;8.186;2023-05-10T06:39:42;12.40;99.90
21176;DHT22;10746;50.178;8.186;2023-05-10T06:42:09;12.50;99.90
21176;DHT22;10746;50.178;8.186;2023-05-10T06:44:36;12.60;99.90
21176;DHT22;10746;50.178;8.186;2023-05-10T06:47:02;12.70;99.90
21176;DHT22;10746;50.178;8.186;2023-05-10T06:49:29;12.70;99.90
21176;DHT22;10746;50.178;8.186;2023-05-10T06:51:56;12.70;99.90
21176;DHT22;10746;50.178;8.186;2023-05-10T06:54:24;12.70;99.90
21176;DHT22;10746;50.178;8.186;2023-05-10T06:56:51;12.70;99.90
21176;DHT22;10746;50.178;8.186;2023-05-10T06:59:18;12.60;99.90
21176;DHT22;10746;50.178;8.186;2023-05-10T07:01:46;12.60;99.90
21176;DHT22;10746;50.178;8.186;2023-05-10T07:04:13;12.50;99.90
21176;DHT22;10746;50.178;8.186;2023-05-10T07:06:40;12.50;99.90
21176;DHT22;10746;50.178;8.186;2023-05-10T07:09:06;12.40;99.90
21176;DHT22;10746;50.178;8.186;2023-05-10T07:11:35;12.50;99.90
21176;DHT22;10746;50.178;8.186;2023-05-10T07:14:02;12.40;99.90
21176;DHT22;10746;50.178;8.186;2023-05-10T07:16:29;12.50;99.90
21176;DHT22;10746;50.178;8.186;2023-05-10T07:18:56;12.50;99.90
21176;DHT22;10746;50.178;8.186;2023-05-10T07:21:23;12.60;99.90
21176;DHT22;10746;50.178;8.186;2023-05-10T07:23:50;12.60;99.90
21176;DHT22;10746;50.178;8.186;2023-05-10T07:26:16;12.50;99.90
21176;DHT22;10746;50.178;8.186;2023-05-10T07:28:45;12.50;99.90
21176;DHT22;10746;50.178;8.186;2023-05-10T07:31:12;12.60;99.90
21176;DHT22;10746;50.178;8.186;2023-05-10T07:33:39;12.60;99.90
21176;DHT22;10746;50.178;8.186;2023-05-10T07:36:06;12.70;99.90
21176;DHT22;10746;50.178;8.186;2023-05-10T07:38:32;12.70;99.90
21176;DHT22;10746;50.178;8.186;2023-05-10T07:40:59;12.60;99.90
21176;DHT22;10746;50.178;8.186;2023-05-10T07:43:26;12.50;99.90
21176;DHT22;10746;50.178;8.186;2023-05-10T07:45:54;12.50;99.90
21176;DHT22;10746;50.178;8.186;2023-05-10T07:48:22;12.50;99.90
21176;DHT22;10746;50.178;8.186;2023-05-10T07:50:49;12.50;99.90
21176;DHT22;10746;50.178;8.186;2023-05-10T07:53:16;12.40;99.90
21176;DHT22;10746;50.178;8.186;2023-05-10T07:55:44;12.50;99.90
21176;DHT22;10746;50.178;8.186;2023-05-10T07:58:11;12.60;99.90
21176;DHT22;10746;50.178;8.186;2023-05-10T08:00:38;12.60;99.90
21176;DHT22;10746;50.178;8.186;2023-05-10T08:03:06;12.60;99.90
21176;DHT22;10746;50.178;8.186;2023-05-10T08:05:32;12.60;99.90
21176;DHT22;10746;50.178;8.186;2023-05-10T08:07:59;12.60;99.90
21176;DHT22;10746;50.178;8.186;2023-05-10T08:10:26;12.60;99.90
21176;DHT22;10746;50.178;8.186;2023-05-10T08:12:52;12.60;99.90
21176;DHT22;10746;50.178;8.186;2023-05-10T08:15:19;12.60;99.90
21176;DHT22;10746;50.178;8.186;2023-05-10T08:17:46;12.60;99.90
21176;DHT22;10746;50.178;8.186;2023-05-10T08:20:14;12.60;99.90
21176;DHT22;10746;50.178;8.186;2023-05-10T08:22:42;12.60;99.90
21176;DHT22;10746;50.178;8.186;2023-05-10T08:25:08;12.50;99.90
21176;DHT22;10746;50.178;8.186;2023-05-10T08:27:35;12.60;99.90
21176;DHT22;10746;50.178;8.186;2023-05-10T08:30:02;12.60;99.90
21176;DHT22;10746;50.178;8.186;2023-05-10T08:32:29;12.60;99.90
21176;DHT22;10746;50.178;8.186;2023-05-10T08:34:56;12.60;99.90
21176;DHT22;10746;50.178;8.186;2023-05-10T08:37:24;12.60;99.90
21176;DHT22;10746;50.178;8.186;2023-05-10T08:39:51;12.80;99.90
21176;DHT22;10746;50.178;8.186;2023-05-10T08:42:21;12.80;99.90
21176;DHT22;10746;50.178;8.186;2023-05-10T08:44:49;12.90;99.90
21176;DHT22;10746;50.178;8.186;2023-05-10T08:47:18;13.10;99.90
21176;DHT22;10746;50.178;8.186;2023-05-10T08:49:47;13.20;99.90
21176;DHT22;10746;50.178;8.186;2023-05-10T08:52:16;13.30;99.90
21176;DHT22;10746;50.178;8.186;2023-05-10T08:54:45;13.50;99.90
21176;DHT22;10746;50.178;8.186;2023-05-10T08:57:11;13.60;99.90
21176;DHT22;10746;50.178;8.186;2023-05-10T08:59:38;13.70;99.90
21176;DHT22;10746;50.178;8.186;2023-05-10T09:02:06;13.90;99.90
21176;DHT22;10746;50.178;8.186;2023-05-10T09:04:35;14.10;99.90
21176;DHT22;10746;50.178;8.186;2023-05-10T09:07:01;14.40;99.90
21176;DHT22;10746;50.178;8.186;2023-05-10T09:09:29;14.80;99.90
21176;DHT22;10746;50.178;8.186;2023-05-10T09:11:57;14.80;99.90
21176;DHT22;10746;50.178;8.186;2023-05-10T09:14:24;14.90;99.90
21176;DHT22;10746;50.178;8.186;2023-05-10T09:16:51;15.00;99.90
21176;DHT22;10746;50.178;8.186;2023-05-10T09:19:19;15.00;99.90
21176;DHT22;10746;50.178;8.186;2023-05-10T09:21:46;14.80;99.90
21176;DHT22;10746;50.178;8.186;2023-05-10T09:24:12;14.60;99.90
21176;DHT22;10746;50.178;8.186;2023-05-10T09:26:46;14.80;99.90
21176;DHT22;10746;50.178;8.186;2023-05-10T09:29:15;14.80;99.90
21176;DHT22;10746;50.178;8.186;2023-05-10T09:31:46;14.50;99.90
21176;DHT22;10746;50.178;8.186;2023-05-10T09:34:17;14.50;99.90
21176;DHT22;10746;50.178;8.186;2023-05-10T09:36:51;14.40;99.90
21176;DHT22;10746;50.178;8.186;2023-05-10T09:39:19;14.30;99.90
21176;DHT22;10746;50.178;8.186;2023-05-10T09:41:46;14.30;99.90
21176;DHT22;10746;50.178;8.186;2023-05-10T09:44:16;14.50;99.90
21176;DHT22;10746;50.178;8.186;2023-05-10T09:46:48;14.60;99.90
21176;DHT22;10746;50.178;8.186;2023-05-10T09:49:15;14.50;99.90
21176;DHT22;10746;50.178;8.186;2023-05-10T09:51:42;14.40;99.90
21176;DHT22;10746;50.178;8.186;2023-05-10T09:54:10;14.30;99.90
21176;DHT22;10746;50.178;8.186;2023-05-10T09:56:37;13.90;99.90
21176;DHT22;10746;50.178;8.186;2023-05-10T09:59:06;14.00;99.90
21176;DHT22;10746;50.178;8.186;2023-05-10T10:01:34;14.00;99.90
21176;DHT22;10746;50.178;8.186;2023-05-10T10:04:03;14.00;99.90
21176;DHT22;10746;50.178;8.186;2023-05-10T10:06:35;14.10;99.90
21176;DHT22;10746;50.178;8.186;2023-05-10T10:09:02;14.30;99.90
21176;DHT22;10746;50.178;8.186;2023-05-10T10:11:29;14.30;99.90
21176;DHT22;10746;50.178;8.186;2023-05-10T10:13:55;14.20;99.90
21176;DHT22;10746;50.178;8.186;2023-05-10T10:16:22;14.10;99.90
21176;DHT22;10746;50.178;8.186;2023-05-10T10:18:52;14.10;99.90
21176;DHT22;10746;50.178;8.186;2023-05-10T10:21:19;14.30;99.90
21176;DHT22;10746;50.178;8.186;2023-05-10T10:23:46;14.60;99.90
21176;DHT22;10746;50.178;8.186;2023-05-10T10:26:13;14.50;99.90
21176;DHT22;10746;50.178;8.186;2023-05-10T10:28:46;14.20;99.90
21176;DHT22;10746;50.178;8.186;2023-05-10T10:31:23;14.00;99.90
21176;DHT22;10746;50.178;8.186;2023-05-10T10:34:00;13.80;99.90
21176;DHT22;10746;50.178;8.186;2023-05-10T10:36:28;13.80;99.90
21176;DHT22;10746;50.178;8.186;2023-05-10T10:38:59;13.80;99.90
21176;DHT22;10746;50.178;8.186;2023-05-10T10:41:28;13.90;99.90
21176;DHT22;10746;50.178;8.186;2023-05-10T10:44:23;14.00;99.90
21176;DHT22;10746;50.178;8.186;2023-05-10T10:47:04;14.20;99.90
21176;DHT22;10746;50.178;8.186;2023-05-10T10:49:38;14.40;99.90
21176;DHT22;10746;50.178;8.186;2023-05-10T10:52:25;14.60;99.90
21176;DHT22;10746;50.178;8.186;2023-05-10T10:54:58;14.80;99.90
21176;DHT22;10746;50.178;8.186;2023-05-10T10:57:25;14.90;99.90
21176;DHT22;10746;50.178;8.186;2023-05-10T11:00:21;15.10;99.90
21176;DHT22;10746;50.178;8.186;2023-05-10T11:02:50;15.10;99.90
21176;DHT22;10746;50.178;8.186;2023-05-10T11:05:33;15.20;99.90
21176;DHT22;10746;50.178;8.186;2023-05-10T11:08:06;15.30;99.90
21176;DHT22;10746;50.178;8.186;2023-05-10T11:10:33;15.30;99.90
21176;DHT22;10746;50.178;8.186;2023-05-10T11:13:00;15.40;99.90
21176;DHT22;10746;50.178;8.186;2023-05-10T11:15:31;15.40;99.90
21176;DHT22;10746;50.178;8.186;2023-05-10T11:17:59;15.20;99.90
21176;DHT22;10746;50.178;8.186;2023-05-10T11:20:29;15.20;99.90
21176;DHT22;10746;50.178;8.186;2023-05-10T11:23:12;14.90;99.90
21176;DHT22;10746;50.178;8.186;2023-05-10T11:25:42;14.80;99.90
21176;DHT22;10746;50.178;8.186;2023-05-10T11:28:10;15.10;99.90
21176;DHT22;10746;50.178;8.186;2023-05-10T11:30:38;15.30;99.90
21176;DHT22;10746;50.178;8.186;2023-05-10T11:33:05;15.40;99.90
21176;DHT22;10746;50.178;8.186;2023-05-10T11:35:37;15.50;99.90
21176;DHT22;10746;50.178;8.186;2023-05-10T11:38:06;16.00;99.90
21176;DHT22;10746;50.178;8.186;2023-05-10T11:40:32;16.10;99.90
21176;DHT22;10746;50.178;8.186;2023-05-10T11:42:59;16.10;99.90
21176;DHT22;10746;50.178;8.186;2023-05-10T11:45:26;16.30;99.90
21176;DHT22;10746;50.178;8.186;2023-05-10T11:47:54;16.40;99.90
21176;DHT22;10746;50.178;8.186;2023-05-10T11:50:21;16.00;99.90
21176;DHT22;10746;50.178;8.186;2023-05-10T11:52:51;15.70;99.90
21176;DHT22;10746;50.178;8.186;2023-05-10T11:55:18;15.90;99.90
21176;DHT22;10746;50.178;8.186;2023-05-10T11:57:45;16.00;99.90
21176;DHT22;10746;50.178;8.186;2023-05-10T12:00:13;16.30;99.90
21176;DHT22;10746;50.178;8.186;2023-05-10T12:02:40;16.40;99.90
21176;DHT22;10746;50.178;8.186;2023-05-10T12:05:07;16.40;99.90
21176;DHT22;10746;50.178;8.186;2023-05-10T12:07:34;16.50;99.90
21176;DHT22;10746;50.178;8.186;2023-05-10T12:10:10;16.60;99.90
21176;DHT22;10746;50.178;8.186;2023-05-10T12:12:40;16.40;99.90
21176;DHT22;10746;50.178;8.186;2023-05-10T12:15:11;16.50;99.90
21176;DHT22;10746;50.178;8.186;2023-05-10T12:17:39;16.60;99.90
21176;DHT22;10746;50.178;8.186;2023-05-10T12:20:16;16.90;99.90
21176;DHT22;10746;50.178;8.186;2023-05-10T12:22:49;17.20;99.90
21176;DHT22;10746;50.178;8.186;2023-05-10T12:25:17;17.30;99.90
21176;DHT22;10746;50.178;8.186;2023-05-10T12:27:51;17.70;99.90
21176;DHT22;10746;50.178;8.186;2023-05-10T12:30:21;17.70;99.90
21176;DHT22;10746;50.178;8.186;2023-05-10T12:32:49;17.60;99.90
21176;DHT22;10746;50.178;8.186;2023-05-10T12:35:16;17.40;99.90
21176;DHT22;10746;50.178;8.186;2023-05-10T12:37:46;17.10;99.90
21176;DHT22;10746;50.178;8.186;2023-05-10T12:40:12;17.00;99.90
21176;DHT22;10746;50.178;8.186;2023-05-10T12:42:41;16.90;99.90
21176;DHT22;10746;50.178;8.186;2023-05-10T12:45:09;16.50;99.90
21176;DHT22;10746;50.178;8.186;2023-05-10T12:47:36;16.20;99.90
21176;DHT22;10746;50.178;8.186;2023-05-10T12:50:04;15.80;99.90
21176;DHT22;10746;50.178;8.186;2023-05-10T12:52:31;15.60;99.90
21176;DHT22;10746;50.178;8.186;2023-05-10T12:54:59;15.20;99.90
21176;DHT22;10746;50.178;8.186;2023-05-10T12:57:25;14.70;99.90
21176;DHT22;10746;50.178;8.186;2023-05-10T12:59:54;14.40;99.90
21176;DHT22;10746;50.178;8.186;2023-05-10T13:02:21;14.20;99.90
21176;DHT22;10746;50.178;8.186;2023-05-10T13:04:48;14.10;99.90
21176;DHT22;10746;50.178;8.186;2023-05-10T13:07:15;14.00;99.90
21176;DHT22;10746;50.178;8.186;2023-05-10T13:09:42;14.00;99.90
21176;DHT22;10746;50.178;8.186;2023-05-10T13:12:08;14.00;99.90
21176;DHT22;10746;50.178;8.186;2023-05-10T13:14:35;14.10;99.90
21176;DHT22;10746;50.178;8.186;2023-05-10T13:17:03;14.20;99.90
21176;DHT22;10746;50.178;8.186;2023-05-10T13:19:30;14.30;99.90
21176;DHT22;10746;50.178;8.186;2023-05-10T13:21:57;14.40;99.90
21176;DHT22;10746;50.178;8.186;2023-05-10T13:24:24;14.40;99.90
21176;DHT22;10746;50.178;8.186;2023-05-10T13:26:50;14.40;99.90
21176;DHT22;10746;50.178;8.186;2023-05-10T13:29:17;14.60;99.90
21176;DHT22;10746;50.178;8.186;2023-05-10T13:31:44;14.70;99.90
21176;DHT22;10746;50.178;8.186;2023-05-10T13:34:12;14.90;99.90
21176;DHT22;10746;50.178;8.186;2023-05-10T13:36:39;15.10;99.90
21176;DHT22;10746;50.178;8.186;2023-05-10T13:39:06;15.30;99.90
21176;DHT22;10746;50.178;8.186;2023-05-10T13:41:33;15.40;99.90
21176;DHT22;10746;50.178;8.186;2023-05-10T13:44:00;15.40;99.90
21176;DHT22;10746;50.178;8.186;2023-05-10T13:46:27;15.40;99.90
21176;DHT22;10746;50.178;8.186;2023-05-10T13:48:53;15.40;99.90
21176;DHT22;10746;50.178;8.186;2023-05-10T13:51:21;16.00;99.90
21176;DHT22;10746;50.178;8.186;2023-05-10T13:53:48;16.20;99.90
21176;DHT22;10746;50.178;8.186;2023-05-10T13:56:15;16.50;99.90
21176;DHT22;10746;50.178;8.186;2023-05-10T13:58:42;16.80;99.90
21176;DHT22;10746;50.178;8.186;2023-05-10T14:01:08;16.90;99.90
21176;DHT22;10746;50.178;8.186;2023-05-10T14:03:35;16.80;99.90
21176;DHT22;10746;50.178;8.186;2023-05-10T14:06:02;16.70;99.90
21176;DHT22;10746;50.178;8.186;2023-05-10T14:08:30;16.50;99.90
21176;DHT22;10746;50.178;8.186;2023-05-10T14:10:57;16.40;99.90
21176;DHT22;10746;50.178;8.186;2023-05-10T14:13:24;16.30;99.90
21176;DHT22;10746;50.178;8.186;2023-05-10T14:15:52;16.20;99.90
21176;DHT22;10746;50.178;8.186;2023-05-10T14:18:19;16.00;99.90
21176;DHT22;10746;50.178;8.186;2023-05-10T14:20:45;15.90;99.90
21176;DHT22;10746;50.178;8.186;2023-05-10T14:23:12;15.90;99.90
21176;DHT22;10746;50.178;8.186;2023-05-10T14:25:40;16.00;99.90
21176;DHT22;10746;50.178;8.186;2023-05-10T14:28:07;16.00;99.90
21176;DHT22;10746;50.178;8.186;2023-05-10T14:30:34;16.10;99.90
21176;DHT22;10746;50.178;8.186;2023-05-10T14:33:01;16.10;99.90
21176;DHT22;10746;50.178;8.186;2023-05-10T14:35:28;16.10;99.90
21176;DHT22;10746;50.178;8.186;2023-05-10T14:37:56;16.10;99.90
21176;DHT22;10746;50.178;8.186;2023-05-10T14:40:23;16.30;99.90
21176;DHT22;10746;50.178;8.186;2023-05-10T14:42:51;16.30;99.90
21176;DHT22;10746;50.178;8.186;2023-05-10T14:45:19;16.30;99.90
21176;DHT22;10746;50.178;8.186;2023-05-10T14:47:46;16.10;99.90
21176;DHT22;10746;50.178;8.186;2023-05-10T14:50:13;16.10;99.90
21176;DHT22;10746;50.178;8.186;2023-05-10T14:52:40;16.20;99.90
21176;DHT22;10746;50.178;8.186;2023-05-10T14:55:08;16.20;99.90
21176;DHT22;10746;50.178;8.186;2023-05-10T14:57:35;16.20;99.90
21176;DHT22;10746;50.178;8.186;2023-05-10T15:00:03;16.50;99.90
21176;DHT22;10746;50.178;8.186;2023-05-10T15:02:30;16.70;99.90
21176;DHT22;10746;50.178;8.186;2023-05-10T15:04:57;16.70;99.90
21176;DHT22;10746;50.178;8.186;2023-05-10T15:07:24;16.70;99.90
21176;DHT22;10746;50.178;8.186;2023-05-10T15:09:51;16.40;99.90
21176;DHT22;10746;50.178;8.186;2023-05-10T15:12:18;16.20;99.90
21176;DHT22;10746;50.178;8.186;2023-05-10T15:14:45;16.30;99.90
21176;DHT22;10746;50.178;8.186;2023-05-10T15:17:13;16.50;99.90
21176;DHT22;10746;50.178;8.186;2023-05-10T15:19:39;16.40;99.90
21176;DHT22;10746;50.178;8.186;2023-05-10T15:22:06;16.70;99.90
21176;DHT22;10746;50.178;8.186;2023-05-10T15:24:34;16.80;99.90
21176;DHT22;10746;50.178;8.186;2023-05-10T15:27:01;17.10;99.90
21176;DHT22;10746;50.178;8.186;2023-05-10T15:29:27;16.90;99.90
21176;DHT22;10746;50.178;8.186;2023-05-10T15:31:54;16.70;99.90
21176;DHT22;10746;50.178;8.186;2023-05-10T15:34:23;16.60;99.90
21176;DHT22;10746;50.178;8.186;2023-05-10T15:36:49;16.50;99.90
21176;DHT22;10746;50.178;8.186;2023-05-10T15:39:16;16.40;99.90